Página principal
METAR-TAF:

METAR-TAF

Aeroportos :

Punta Arenas, Chile

Aeroporto Internacional Carlos Ibáñez del Campo

latitude: 53-00S, longitude: 070-51W, altura: 37 m

Observação actual do tempo

O boletim foi feito há 45 minutos, às 23:00 UTC
Vento 11 kt de sul
Temperatura 6°C
Humidade 45%
Pressão 1006 hPa
Visibilidade 10 km ou mais
Nuvens dispersasa uma altura de 4000 ft

METAR: SCCI 192300Z 18011KT 9999 SCT040 06/M05 Q1006 NOSIG

Hora: 20:45 (23:45 UTC)

Previsão

O boletim foi feito há 1 hora e 0 minutos, às 22:45 UTC
Previsão válida de 20 às 00 UTC a 21 às 00 UTC
Vento 12 kt de sul
Visibilidade 10 km ou mais
Nuvens dispersasa uma altura de 4000 ft
Tornando-se
de 20 às 06 UTC a 20 às 08 UTC
Vento 10 kt de oes-sudoeste
Temporariamente
de 20 às 16 UTC a 20 às 22 UTC
Nuvens fragmentadasa uma altura de 3500 ft

TAF: SCCI 192245Z 2000/2100 18012KT 9999 SCT040 TN01/2011Z TX08/2018Z BECMG 2006/2008 25010KT TEMPO 2016/2022 BKN035

Observações e previsões do tempo de mais de 4000 aeroportos (mensagens METAR e TAF).

As estações disponíveis são os pontos amarelos e vermelhos sobre o mapa.

Mova o rato sobre o mapa para ver o nome da estação.

Depois clique no ponto para visualizar as observações e previsões meteorológicas.

Para alterar o mapa : clique nos botões verdes com uma cruz preta para aumentar o zoom; no botão verde com uma pitada de zoom; ou nas setas verdes para mapas adjacentes.


METAR-TAF: